sensor_id;sensor_type;location;lat;lon;timestamp;P1;durP1;ratioP1;P2;durP2;ratioP2
51877;SDS011;37911;51.526;11.536;2023-10-13T00:00:52;22.10;;;12.32;;
51877;SDS011;37911;51.526;11.536;2023-10-13T00:03:57;22.58;;;12.98;;
51877;SDS011;37911;51.526;11.536;2023-10-13T00:07:02;21.27;;;12.38;;
51877;SDS011;37911;51.526;11.536;2023-10-13T00:10:11;23.30;;;13.98;;
51877;SDS011;37911;51.526;11.536;2023-10-13T00:16:22;21.98;;;12.82;;
51877;SDS011;37911;51.526;11.536;2023-10-13T00:19:27;18.88;;;12.82;;
51877;SDS011;37911;51.526;11.536;2023-10-13T00:25:44;22.75;;;12.23;;
51877;SDS011;37911;51.526;11.536;2023-10-13T00:28:50;21.33;;;12.55;;
51877;SDS011;37911;51.526;11.536;2023-10-13T00:31:59;21.00;;;12.03;;
51877;SDS011;37911;51.526;11.536;2023-10-13T00:35:03;20.60;;;12.20;;
51877;SDS011;37911;51.526;11.536;2023-10-13T00:38:13;19.45;;;11.52;;
51877;SDS011;37911;51.526;11.536;2023-10-13T00:41:19;19.80;;;10.93;;
51877;SDS011;37911;51.526;11.536;2023-10-13T00:44:44;19.27;;;11.80;;
51877;SDS011;37911;51.526;11.536;2023-10-13T00:47:49;20.13;;;11.90;;
51877;SDS011;37911;51.526;11.536;2023-10-13T00:50:50;21.02;;;11.43;;
51877;SDS011;37911;51.526;11.536;2023-10-13T00:53:56;22.27;;;12.27;;
51877;SDS011;37911;51.526;11.536;2023-10-13T00:57:03;17.20;;;11.07;;
51877;SDS011;37911;51.526;11.536;2023-10-13T01:00:12;17.33;;;11.40;;
51877;SDS011;37911;51.526;11.536;2023-10-13T01:03:19;20.27;;;10.85;;
51877;SDS011;37911;51.526;11.536;2023-10-13T01:06:27;16.13;;;10.50;;
51877;SDS011;37911;51.526;11.536;2023-10-13T01:09:39;16.30;;;10.73;;
51877;SDS011;37911;51.526;11.536;2023-10-13T01:12:46;16.33;;;10.23;;
51877;SDS011;37911;51.526;11.536;2023-10-13T01:15:47;17.25;;;10.50;;
51877;SDS011;37911;51.526;11.536;2023-10-13T01:18:51;16.90;;;10.38;;
51877;SDS011;37911;51.526;11.536;2023-10-13T01:21:59;17.60;;;11.18;;
51877;SDS011;37911;51.526;11.536;2023-10-13T01:25:09;17.30;;;10.25;;
51877;SDS011;37911;51.526;11.536;2023-10-13T01:28:19;17.65;;;10.50;;
51877;SDS011;37911;51.526;11.536;2023-10-13T01:31:22;17.40;;;10.55;;
51877;SDS011;37911;51.526;11.536;2023-10-13T01:34:29;16.92;;;9.82;;
51877;SDS011;37911;51.526;11.536;2023-10-13T01:37:33;25.20;;;11.38;;
51877;SDS011;37911;51.526;11.536;2023-10-13T01:40:39;18.70;;;10.60;;
51877;SDS011;37911;51.526;11.536;2023-10-13T01:43:43;16.85;;;10.60;;
51877;SDS011;37911;51.526;11.536;2023-10-13T01:46:46;16.50;;;10.10;;
51877;SDS011;37911;51.526;11.536;2023-10-13T01:49:51;15.63;;;9.50;;
51877;SDS011;37911;51.526;11.536;2023-10-13T01:52:52;17.63;;;10.07;;
51877;SDS011;37911;51.526;11.536;2023-10-13T01:56:14;17.83;;;10.02;;
51877;SDS011;37911;51.526;11.536;2023-10-13T01:59:23;14.48;;;10.18;;
51877;SDS011;37911;51.526;11.536;2023-10-13T02:02:27;20.40;;;11.40;;
51877;SDS011;37911;51.526;11.536;2023-10-13T02:05:31;20.70;;;11.07;;
51877;SDS011;37911;51.526;11.536;2023-10-13T02:08:36;18.60;;;11.77;;
51877;SDS011;37911;51.526;11.536;2023-10-13T02:11:46;19.17;;;11.07;;
51877;SDS011;37911;51.526;11.536;2023-10-13T02:14:54;18.80;;;10.70;;
51877;SDS011;37911;51.526;11.536;2023-10-13T02:18:01;18.20;;;11.05;;
51877;SDS011;37911;51.526;11.536;2023-10-13T02:21:07;17.10;;;10.65;;
51877;SDS011;37911;51.526;11.536;2023-10-13T02:24:15;23.27;;;11.45;;
51877;SDS011;37911;51.526;11.536;2023-10-13T02:27:21;20.00;;;11.55;;
51877;SDS011;37911;51.526;11.536;2023-10-13T02:30:24;18.95;;;11.48;;
51877;SDS011;37911;51.526;11.536;2023-10-13T02:33:27;17.85;;;10.98;;
51877;SDS011;37911;51.526;11.536;2023-10-13T02:36:30;23.95;;;12.15;;
51877;SDS011;37911;51.526;11.536;2023-10-13T02:39:47;22.17;;;11.98;;
51877;SDS011;37911;51.526;11.536;2023-10-13T02:42:53;20.75;;;12.20;;
51877;SDS011;37911;51.526;11.536;2023-10-13T02:45:57;16.35;;;11.32;;
51877;SDS011;37911;51.526;11.536;2023-10-13T02:49:01;19.75;;;11.90;;
51877;SDS011;37911;51.526;11.536;2023-10-13T02:52:10;17.10;;;11.67;;
51877;SDS011;37911;51.526;11.536;2023-10-13T02:55:14;18.70;;;11.40;;
51877;SDS011;37911;51.526;11.536;2023-10-13T02:58:28;19.25;;;11.20;;
51877;SDS011;37911;51.526;11.536;2023-10-13T03:01:38;21.13;;;10.98;;
51877;SDS011;37911;51.526;11.536;2023-10-13T03:04:41;17.15;;;11.27;;
51877;SDS011;37911;51.526;11.536;2023-10-13T03:07:45;18.95;;;11.75;;
51877;SDS011;37911;51.526;11.536;2023-10-13T03:10:51;19.67;;;11.85;;
51877;SDS011;37911;51.526;11.536;2023-10-13T03:13:57;16.05;;;10.20;;
51877;SDS011;37911;51.526;11.536;2023-10-13T03:17:06;19.42;;;11.77;;
51877;SDS011;37911;51.526;11.536;2023-10-13T03:20:15;17.75;;;11.57;;
51877;SDS011;37911;51.526;11.536;2023-10-13T03:23:22;21.92;;;11.77;;
51877;SDS011;37911;51.526;11.536;2023-10-13T03:26:24;19.95;;;11.50;;
51877;SDS011;37911;51.526;11.536;2023-10-13T03:29:30;26.58;;;12.70;;
51877;SDS011;37911;51.526;11.536;2023-10-13T03:32:34;19.33;;;13.57;;
51877;SDS011;37911;51.526;11.536;2023-10-13T03:35:43;20.88;;;14.38;;
51877;SDS011;37911;51.526;11.536;2023-10-13T03:38:54;21.52;;;14.98;;
51877;SDS011;37911;51.526;11.536;2023-10-13T03:41:57;23.02;;;14.43;;
51877;SDS011;37911;51.526;11.536;2023-10-13T03:45:08;25.42;;;14.38;;
51877;SDS011;37911;51.526;11.536;2023-10-13T03:48:14;24.63;;;14.23;;
51877;SDS011;37911;51.526;11.536;2023-10-13T03:51:28;21.30;;;13.40;;
51877;SDS011;37911;51.526;11.536;2023-10-13T03:54:34;22.45;;;13.80;;
51877;SDS011;37911;51.526;11.536;2023-10-13T03:57:41;23.35;;;14.77;;
51877;SDS011;37911;51.526;11.536;2023-10-13T04:00:49;24.15;;;14.60;;
51877;SDS011;37911;51.526;11.536;2023-10-13T04:03:53;23.58;;;13.85;;
51877;SDS011;37911;51.526;11.536;2023-10-13T04:07:09;24.23;;;14.27;;
51877;SDS011;37911;51.526;11.536;2023-10-13T04:10:25;23.92;;;14.43;;
51877;SDS011;37911;51.526;11.536;2023-10-13T04:13:41;21.95;;;14.23;;
51877;SDS011;37911;51.526;11.536;2023-10-13T04:17:05;20.15;;;13.43;;
51877;SDS011;37911;51.526;11.536;2023-10-13T04:20:14;22.17;;;15.57;;
51877;SDS011;37911;51.526;11.536;2023-10-13T04:23:33;21.92;;;13.80;;
51877;SDS011;37911;51.526;11.536;2023-10-13T04:26:57;24.50;;;14.45;;
51877;SDS011;37911;51.526;11.536;2023-10-13T04:30:15;20.60;;;13.93;;
51877;SDS011;37911;51.526;11.536;2023-10-13T04:33:30;23.27;;;14.73;;
51877;SDS011;37911;51.526;11.536;2023-10-13T04:36:44;27.00;;;15.32;;
51877;SDS011;37911;51.526;11.536;2023-10-13T04:39:56;23.38;;;14.85;;
51877;SDS011;37911;51.526;11.536;2023-10-13T04:43:10;21.42;;;14.52;;
51877;SDS011;37911;51.526;11.536;2023-10-13T04:46:33;22.88;;;13.75;;
51877;SDS011;37911;51.526;11.536;2023-10-13T04:49:57;26.42;;;14.50;;
51877;SDS011;37911;51.526;11.536;2023-10-13T04:53:02;21.73;;;14.38;;
51877;SDS011;37911;51.526;11.536;2023-10-13T04:56:13;18.20;;;12.60;;
51877;SDS011;37911;51.526;11.536;2023-10-13T04:59:29;20.65;;;14.05;;
51877;SDS011;37911;51.526;11.536;2023-10-13T05:03:02;21.65;;;14.25;;
51877;SDS011;37911;51.526;11.536;2023-10-13T05:06:27;23.58;;;13.80;;
51877;SDS011;37911;51.526;11.536;2023-10-13T05:09:43;20.85;;;14.27;;
51877;SDS011;37911;51.526;11.536;2023-10-13T05:13:00;21.35;;;13.80;;
51877;SDS011;37911;51.526;11.536;2023-10-13T05:16:16;17.83;;;12.38;;
51877;SDS011;37911;51.526;11.536;2023-10-13T05:19:32;20.75;;;12.95;;
51877;SDS011;37911;51.526;11.536;2023-10-13T05:22:51;23.55;;;13.20;;
51877;SDS011;37911;51.526;11.536;2023-10-13T05:26:08;18.90;;;13.02;;
51877;SDS011;37911;51.526;11.536;2023-10-13T05:29:24;21.13;;;13.50;;
51877;SDS011;37911;51.526;11.536;2023-10-13T05:32:40;19.17;;;12.68;;
51877;SDS011;37911;51.526;11.536;2023-10-13T05:35:56;19.20;;;12.50;;
51877;SDS011;37911;51.526;11.536;2023-10-13T05:39:14;23.38;;;12.82;;
51877;SDS011;37911;51.526;11.536;2023-10-13T05:42:36;22.60;;;12.45;;
51877;SDS011;37911;51.526;11.536;2023-10-13T05:45:52;19.50;;;11.63;;
51877;SDS011;37911;51.526;11.536;2023-10-13T05:49:09;19.55;;;11.57;;
51877;SDS011;37911;51.526;11.536;2023-10-13T05:52:40;18.02;;;11.05;;
51877;SDS011;37911;51.526;11.536;2023-10-13T05:56:03;19.20;;;10.90;;
51877;SDS011;37911;51.526;11.536;2023-10-13T05:59:19;21.35;;;11.23;;
51877;SDS011;37911;51.526;11.536;2023-10-13T06:02:35;17.73;;;11.18;;
51877;SDS011;37911;51.526;11.536;2023-10-13T06:05:51;16.75;;;10.02;;
51877;SDS011;37911;51.526;11.536;2023-10-13T06:09:07;18.48;;;10.07;;
51877;SDS011;37911;51.526;11.536;2023-10-13T06:12:25;16.15;;;9.13;;
51877;SDS011;37911;51.526;11.536;2023-10-13T06:15:41;17.75;;;10.07;;
51877;SDS011;37911;51.526;11.536;2023-10-13T06:19:00;14.50;;;9.43;;
51877;SDS011;37911;51.526;11.536;2023-10-13T06:22:16;17.10;;;9.57;;
51877;SDS011;37911;51.526;11.536;2023-10-13T06:25:32;19.88;;;9.55;;
51877;SDS011;37911;51.526;11.536;2023-10-13T06:28:51;14.60;;;8.65;;
51877;SDS011;37911;51.526;11.536;2023-10-13T06:31:54;16.15;;;9.25;;
51877;SDS011;37911;51.526;11.536;2023-10-13T06:34:58;14.85;;;8.60;;
51877;SDS011;37911;51.526;11.536;2023-10-13T06:38:05;18.40;;;9.60;;
51877;SDS011;37911;51.526;11.536;2023-10-13T06:41:20;13.70;;;8.75;;
51877;SDS011;37911;51.526;11.536;2023-10-13T06:47:40;16.83;;;9.02;;
51877;SDS011;37911;51.526;11.536;2023-10-13T06:50:49;16.35;;;9.10;;
51877;SDS011;37911;51.526;11.536;2023-10-13T06:53:56;23.67;;;12.93;;
51877;SDS011;37911;51.526;11.536;2023-10-13T06:57:01;18.58;;;10.43;;
51877;SDS011;37911;51.526;11.536;2023-10-13T07:00:10;21.17;;;11.23;;
51877;SDS011;37911;51.526;11.536;2023-10-13T07:03:33;19.63;;;11.63;;
51877;SDS011;37911;51.526;11.536;2023-10-13T07:06:37;23.33;;;12.35;;
51877;SDS011;37911;51.526;11.536;2023-10-13T07:09:42;20.80;;;13.18;;
51877;SDS011;37911;51.526;11.536;2023-10-13T07:12:49;25.67;;;13.75;;
51877;SDS011;37911;51.526;11.536;2023-10-13T07:16:00;22.80;;;14.77;;
51877;SDS011;37911;51.526;11.536;2023-10-13T07:19:06;24.45;;;13.07;;
51877;SDS011;37911;51.526;11.536;2023-10-13T07:22:11;22.75;;;13.30;;
51877;SDS011;37911;51.526;11.536;2023-10-13T07:25:22;21.42;;;13.15;;
51877;SDS011;37911;51.526;11.536;2023-10-13T07:28:26;22.17;;;12.00;;
51877;SDS011;37911;51.526;11.536;2023-10-13T07:31:33;15.82;;;11.13;;
51877;SDS011;37911;51.526;11.536;2023-10-13T07:34:38;20.02;;;11.50;;
51877;SDS011;37911;51.526;11.536;2023-10-13T07:37:41;21.83;;;11.27;;
51877;SDS011;37911;51.526;11.536;2023-10-13T07:40:45;19.92;;;11.27;;
51877;SDS011;37911;51.526;11.536;2023-10-13T07:43:51;19.02;;;11.40;;
51877;SDS011;37911;51.526;11.536;2023-10-13T07:47:00;20.65;;;10.55;;
51877;SDS011;37911;51.526;11.536;2023-10-13T07:50:07;18.88;;;9.85;;
51877;SDS011;37911;51.526;11.536;2023-10-13T07:53:13;14.93;;;8.77;;
51877;SDS011;37911;51.526;11.536;2023-10-13T07:56:23;13.40;;;6.30;;
51877;SDS011;37911;51.526;11.536;2023-10-13T07:59:30;11.80;;;5.20;;
51877;SDS011;37911;51.526;11.536;2023-10-13T08:02:39;12.68;;;5.90;;
51877;SDS011;37911;51.526;11.536;2023-10-13T08:05:52;10.40;;;5.32;;
51877;SDS011;37911;51.526;11.536;2023-10-13T08:09:04;12.20;;;5.10;;
51877;SDS011;37911;51.526;11.536;2023-10-13T08:12:30;9.35;;;5.10;;
51877;SDS011;37911;51.526;11.536;2023-10-13T08:15:33;10.05;;;5.22;;
51877;SDS011;37911;51.526;11.536;2023-10-13T08:18:42;9.50;;;4.90;;
51877;SDS011;37911;51.526;11.536;2023-10-13T08:21:46;10.98;;;5.20;;
51877;SDS011;37911;51.526;11.536;2023-10-13T08:24:52;15.48;;;5.38;;
51877;SDS011;37911;51.526;11.536;2023-10-13T08:28:15;11.00;;;5.28;;
51877;SDS011;37911;51.526;11.536;2023-10-13T08:31:31;9.48;;;4.75;;
51877;SDS011;37911;51.526;11.536;2023-10-13T08:34:46;12.32;;;4.97;;
51877;SDS011;37911;51.526;11.536;2023-10-13T08:38:04;9.15;;;4.85;;
51877;SDS011;37911;51.526;11.536;2023-10-13T08:41:13;12.52;;;5.25;;
51877;SDS011;37911;51.526;11.536;2023-10-13T08:44:31;10.80;;;4.55;;
51877;SDS011;37911;51.526;11.536;2023-10-13T08:47:35;8.90;;;4.63;;
51877;SDS011;37911;51.526;11.536;2023-10-13T08:50:51;10.50;;;4.82;;
51877;SDS011;37911;51.526;11.536;2023-10-13T08:53:56;10.00;;;5.00;;
51877;SDS011;37911;51.526;11.536;2023-10-13T08:57:08;9.20;;;4.53;;
51877;SDS011;37911;51.526;11.536;2023-10-13T09:00:24;13.05;;;4.50;;
51877;SDS011;37911;51.526;11.536;2023-10-13T09:03:50;10.82;;;5.57;;
51877;SDS011;37911;51.526;11.536;2023-10-13T09:06:57;14.68;;;6.07;;
51877;SDS011;37911;51.526;11.536;2023-10-13T09:10:08;12.98;;;6.00;;
51877;SDS011;37911;51.526;11.536;2023-10-13T09:13:36;12.07;;;5.47;;
51877;SDS011;37911;51.526;11.536;2023-10-13T09:16:44;14.52;;;6.00;;
51877;SDS011;37911;51.526;11.536;2023-10-13T09:20:06;12.52;;;6.05;;
51877;SDS011;37911;51.526;11.536;2023-10-13T09:23:37;14.10;;;6.80;;
51877;SDS011;37911;51.526;11.536;2023-10-13T09:26:48;13.88;;;7.03;;
51877;SDS011;37911;51.526;11.536;2023-10-13T09:29:57;12.88;;;6.55;;
51877;SDS011;37911;51.526;11.536;2023-10-13T09:33:01;14.40;;;6.45;;
51877;SDS011;37911;51.526;11.536;2023-10-13T09:36:08;12.25;;;6.15;;
51877;SDS011;37911;51.526;11.536;2023-10-13T09:39:15;17.05;;;8.13;;
51877;SDS011;37911;51.526;11.536;2023-10-13T09:42:30;16.63;;;9.32;;
51877;SDS011;37911;51.526;11.536;2023-10-13T09:45:35;25.30;;;16.40;;
51877;SDS011;37911;51.526;11.536;2023-10-13T09:48:39;16.02;;;7.10;;
51877;SDS011;37911;51.526;11.536;2023-10-13T09:51:47;27.88;;;21.48;;
51877;SDS011;37911;51.526;11.536;2023-10-13T09:58:18;16.83;;;9.93;;
51877;SDS011;37911;51.526;11.536;2023-10-13T10:01:28;16.00;;;7.50;;
51877;SDS011;37911;51.526;11.536;2023-10-13T10:04:39;33.78;;;19.35;;
51877;SDS011;37911;51.526;11.536;2023-10-13T10:07:53;13.23;;;8.40;;
51877;SDS011;37911;51.526;11.536;2023-10-13T10:11:22;17.50;;;8.55;;
51877;SDS011;37911;51.526;11.536;2023-10-13T10:14:40;17.50;;;7.03;;
51877;SDS011;37911;51.526;11.536;2023-10-13T10:17:51;14.15;;;5.53;;
51877;SDS011;37911;51.526;11.536;2023-10-13T10:21:02;18.23;;;8.05;;
51877;SDS011;37911;51.526;11.536;2023-10-13T10:24:15;18.83;;;9.18;;
51877;SDS011;37911;51.526;11.536;2023-10-13T10:27:34;15.88;;;6.65;;
51877;SDS011;37911;51.526;11.536;2023-10-13T10:30:37;15.30;;;6.15;;
51877;SDS011;37911;51.526;11.536;2023-10-13T10:33:42;15.50;;;5.88;;
51877;SDS011;37911;51.526;11.536;2023-10-13T10:36:53;13.50;;;6.95;;
51877;SDS011;37911;51.526;11.536;2023-10-13T10:39:58;16.17;;;6.05;;
51877;SDS011;37911;51.526;11.536;2023-10-13T10:43:08;14.63;;;5.75;;
51877;SDS011;37911;51.526;11.536;2023-10-13T10:46:18;20.48;;;10.98;;
51877;SDS011;37911;51.526;11.536;2023-10-13T10:49:28;25.85;;;15.77;;
51877;SDS011;37911;51.526;11.536;2023-10-13T10:52:34;40.53;;;29.55;;
51877;SDS011;37911;51.526;11.536;2023-10-13T10:55:39;19.52;;;7.50;;
51877;SDS011;37911;51.526;11.536;2023-10-13T10:58:45;30.55;;;15.52;;
51877;SDS011;37911;51.526;11.536;2023-10-13T11:01:55;20.90;;;8.93;;
51877;SDS011;37911;51.526;11.536;2023-10-13T11:04:59;37.60;;;23.55;;
51877;SDS011;37911;51.526;11.536;2023-10-13T11:08:04;19.13;;;6.50;;
51877;SDS011;37911;51.526;11.536;2023-10-13T11:11:28;27.63;;;14.82;;
51877;SDS011;37911;51.526;11.536;2023-10-13T11:14:38;18.15;;;7.82;;
51877;SDS011;37911;51.526;11.536;2023-10-13T11:17:42;19.17;;;6.35;;
51877;SDS011;37911;51.526;11.536;2023-10-13T11:20:55;17.05;;;5.82;;
51877;SDS011;37911;51.526;11.536;2023-10-13T11:23:59;16.90;;;6.05;;
51877;SDS011;37911;51.526;11.536;2023-10-13T11:27:13;19.10;;;7.28;;
51877;SDS011;37911;51.526;11.536;2023-10-13T11:30:24;20.48;;;6.97;;
51877;SDS011;37911;51.526;11.536;2023-10-13T11:33:43;20.88;;;5.80;;
51877;SDS011;37911;51.526;11.536;2023-10-13T11:36:51;30.88;;;6.20;;
51877;SDS011;37911;51.526;11.536;2023-10-13T11:39:56;18.85;;;5.75;;
51877;SDS011;37911;51.526;11.536;2023-10-13T11:42:59;15.75;;;6.05;;
51877;SDS011;37911;51.526;11.536;2023-10-13T11:46:08;19.90;;;6.10;;
51877;SDS011;37911;51.526;11.536;2023-10-13T11:49:16;14.55;;;5.38;;
51877;SDS011;37911;51.526;11.536;2023-10-13T11:52:31;27.42;;;14.93;;
51877;SDS011;37911;51.526;11.536;2023-10-13T11:55:35;17.55;;;6.63;;
51877;SDS011;37911;51.526;11.536;2023-10-13T11:58:39;35.67;;;24.23;;
51877;SDS011;37911;51.526;11.536;2023-10-13T12:01:46;21.55;;;10.00;;
51877;SDS011;37911;51.526;11.536;2023-10-13T12:05:03;20.67;;;9.20;;
51877;SDS011;37911;51.526;11.536;2023-10-13T12:08:12;29.33;;;14.77;;
51877;SDS011;37911;51.526;11.536;2023-10-13T12:11:22;23.75;;;11.65;;
51877;SDS011;37911;51.526;11.536;2023-10-13T12:14:39;18.77;;;7.28;;
51877;SDS011;37911;51.526;11.536;2023-10-13T12:17:55;18.23;;;6.35;;
51877;SDS011;37911;51.526;11.536;2023-10-13T12:20:58;13.30;;;5.70;;
51877;SDS011;37911;51.526;11.536;2023-10-13T12:24:02;21.38;;;6.97;;
51877;SDS011;37911;51.526;11.536;2023-10-13T12:27:12;20.30;;;7.35;;
51877;SDS011;37911;51.526;11.536;2023-10-13T12:30:35;14.80;;;5.72;;
51877;SDS011;37911;51.526;11.536;2023-10-13T12:33:51;21.45;;;5.75;;
51877;SDS011;37911;51.526;11.536;2023-10-13T12:37:06;19.23;;;5.75;;
51877;SDS011;37911;51.526;11.536;2023-10-13T12:40:29;16.60;;;7.00;;
51877;SDS011;37911;51.526;11.536;2023-10-13T12:43:45;26.75;;;13.93;;
51877;SDS011;37911;51.526;11.536;2023-10-13T12:47:07;18.90;;;7.47;;
51877;SDS011;37911;51.526;11.536;2023-10-13T12:50:25;22.05;;;7.53;;
51877;SDS011;37911;51.526;11.536;2023-10-13T12:53:44;21.05;;;10.90;;
51877;SDS011;37911;51.526;11.536;2023-10-13T12:56:48;19.27;;;10.18;;
51877;SDS011;37911;51.526;11.536;2023-10-13T12:59:56;11.63;;;6.15;;
51877;SDS011;37911;51.526;11.536;2023-10-13T13:03:00;19.75;;;6.22;;
51877;SDS011;37911;51.526;11.536;2023-10-13T13:06:17;20.10;;;7.05;;
51877;SDS011;37911;51.526;11.536;2023-10-13T13:09:25;23.00;;;6.00;;
51877;SDS011;37911;51.526;11.536;2023-10-13T13:12:28;11.40;;;5.07;;
51877;SDS011;37911;51.526;11.536;2023-10-13T13:15:32;20.27;;;5.90;;
51877;SDS011;37911;51.526;11.536;2023-10-13T13:18:36;17.30;;;5.80;;
51877;SDS011;37911;51.526;11.536;2023-10-13T13:21:45;19.58;;;6.07;;
51877;SDS011;37911;51.526;11.536;2023-10-13T13:24:49;14.35;;;5.07;;
51877;SDS011;37911;51.526;11.536;2023-10-13T13:27:54;14.95;;;4.95;;
51877;SDS011;37911;51.526;11.536;2023-10-13T13:30:58;20.08;;;5.85;;
51877;SDS011;37911;51.526;11.536;2023-10-13T13:34:02;18.38;;;6.32;;
51877;SDS011;37911;51.526;11.536;2023-10-13T13:37:08;12.60;;;5.65;;
51877;SDS011;37911;51.526;11.536;2023-10-13T13:40:13;15.05;;;4.90;;
51877;SDS011;37911;51.526;11.536;2023-10-13T13:43:21;15.07;;;5.70;;
51877;SDS011;37911;51.526;11.536;2023-10-13T13:46:37;18.08;;;5.82;;
51877;SDS011;37911;51.526;11.536;2023-10-13T13:49:41;19.38;;;5.07;;
51877;SDS011;37911;51.526;11.536;2023-10-13T13:52:54;21.08;;;5.95;;
51877;SDS011;37911;51.526;11.536;2023-10-13T13:56:00;13.75;;;4.95;;
51877;SDS011;37911;51.526;11.536;2023-10-13T13:59:04;11.70;;;5.40;;
51877;SDS011;37911;51.526;11.536;2023-10-13T14:02:10;14.10;;;5.25;;
51877;SDS011;37911;51.526;11.536;2023-10-13T14:05:22;15.15;;;5.43;;
51877;SDS011;37911;51.526;11.536;2023-10-13T14:08:30;21.30;;;5.22;;
51877;SDS011;37911;51.526;11.536;2023-10-13T14:11:35;19.15;;;4.93;;
51877;SDS011;37911;51.526;11.536;2023-10-13T14:14:56;22.00;;;6.07;;
51877;SDS011;37911;51.526;11.536;2023-10-13T14:18:01;11.55;;;5.55;;
51877;SDS011;37911;51.526;11.536;2023-10-13T14:21:07;15.68;;;5.43;;
51877;SDS011;37911;51.526;11.536;2023-10-13T14:24:13;13.65;;;5.78;;
51877;SDS011;37911;51.526;11.536;2023-10-13T14:27:18;16.02;;;5.47;;
51877;SDS011;37911;51.526;11.536;2023-10-13T14:30:23;20.63;;;6.07;;
51877;SDS011;37911;51.526;11.536;2023-10-13T14:33:31;12.70;;;5.90;;
51877;SDS011;37911;51.526;11.536;2023-10-13T14:36:34;12.82;;;5.05;;
51877;SDS011;37911;51.526;11.536;2023-10-13T14:39:40;16.95;;;5.38;;
51877;SDS011;37911;51.526;11.536;2023-10-13T14:42:44;14.82;;;5.50;;
51877;SDS011;37911;51.526;11.536;2023-10-13T14:45:48;16.10;;;5.82;;
51877;SDS011;37911;51.526;11.536;2023-10-13T14:48:52;15.50;;;6.00;;
51877;SDS011;37911;51.526;11.536;2023-10-13T14:51:56;12.70;;;5.43;;
51877;SDS011;37911;51.526;11.536;2023-10-13T14:55:02;10.13;;;5.13;;
51877;SDS011;37911;51.526;11.536;2023-10-13T14:58:07;14.82;;;5.50;;
51877;SDS011;37911;51.526;11.536;2023-10-13T15:01:16;18.83;;;6.38;;
51877;SDS011;37911;51.526;11.536;2023-10-13T15:04:21;17.20;;;5.60;;
51877;SDS011;37911;51.526;11.536;2023-10-13T15:07:25;13.57;;;6.18;;
51877;SDS011;37911;51.526;11.536;2023-10-13T15:10:31;13.25;;;5.43;;
51877;SDS011;37911;51.526;11.536;2023-10-13T15:13:36;15.63;;;6.15;;
51877;SDS011;37911;51.526;11.536;2023-10-13T15:16:40;12.60;;;5.63;;
51877;SDS011;37911;51.526;11.536;2023-10-13T15:19:43;15.80;;;5.85;;
51877;SDS011;37911;51.526;11.536;2023-10-13T15:22:47;13.10;;;5.22;;
51877;SDS011;37911;51.526;11.536;2023-10-13T15:25:57;15.10;;;5.90;;
51877;SDS011;37911;51.526;11.536;2023-10-13T15:29:07;15.27;;;5.57;;
51877;SDS011;37911;51.526;11.536;2023-10-13T15:32:12;16.40;;;5.85;;
51877;SDS011;37911;51.526;11.536;2023-10-13T15:35:28;15.93;;;5.65;;
51877;SDS011;37911;51.526;11.536;2023-10-13T15:38:32;21.73;;;6.20;;
51877;SDS011;37911;51.526;11.536;2023-10-13T15:41:40;17.77;;;6.25;;
51877;SDS011;37911;51.526;11.536;2023-10-13T15:44:44;16.90;;;6.00;;
51877;SDS011;37911;51.526;11.536;2023-10-13T15:47:48;12.55;;;5.78;;
51877;SDS011;37911;51.526;11.536;2023-10-13T15:50:52;14.70;;;6.05;;
51877;SDS011;37911;51.526;11.536;2023-10-13T15:53:55;18.55;;;5.53;;
51877;SDS011;37911;51.526;11.536;2023-10-13T15:57:02;11.75;;;5.28;;
51877;SDS011;37911;51.526;11.536;2023-10-13T16:00:09;16.30;;;5.75;;
51877;SDS011;37911;51.526;11.536;2023-10-13T16:03:26;16.70;;;5.60;;
51877;SDS011;37911;51.526;11.536;2023-10-13T16:06:30;16.58;;;5.60;;
51877;SDS011;37911;51.526;11.536;2023-10-13T16:09:33;20.27;;;8.38;;
51877;SDS011;37911;51.526;11.536;2023-10-13T16:12:39;19.83;;;9.05;;
51877;SDS011;37911;51.526;11.536;2023-10-13T16:15:45;18.60;;;6.60;;
51877;SDS011;37911;51.526;11.536;2023-10-13T16:18:49;15.50;;;5.88;;
51877;SDS011;37911;51.526;11.536;2023-10-13T16:21:53;16.15;;;5.82;;
51877;SDS011;37911;51.526;11.536;2023-10-13T16:24:57;16.40;;;5.78;;
51877;SDS011;37911;51.526;11.536;2023-10-13T16:28:04;17.15;;;6.05;;
51877;SDS011;37911;51.526;11.536;2023-10-13T16:31:09;16.70;;;5.95;;
51877;SDS011;37911;51.526;11.536;2023-10-13T16:34:13;21.88;;;6.20;;
51877;SDS011;37911;51.526;11.536;2023-10-13T16:37:18;14.65;;;6.03;;
51877;SDS011;37911;51.526;11.536;2023-10-13T16:40:21;12.65;;;5.75;;
51877;SDS011;37911;51.526;11.536;2023-10-13T16:43:27;15.48;;;5.68;;
51877;SDS011;37911;51.526;11.536;2023-10-13T16:46:33;16.10;;;5.47;;
51877;SDS011;37911;51.526;11.536;2023-10-13T16:49:36;17.27;;;6.40;;
51877;SDS011;37911;51.526;11.536;2023-10-13T16:52:43;14.48;;;5.85;;
51877;SDS011;37911;51.526;11.536;2023-10-13T16:55:48;15.13;;;5.65;;
51877;SDS011;37911;51.526;11.536;2023-10-13T16:58:54;20.10;;;6.35;;
51877;SDS011;37911;51.526;11.536;2023-10-13T17:01:58;17.85;;;5.90;;
51877;SDS011;37911;51.526;11.536;2023-10-13T17:05:05;18.20;;;6.35;;
51877;SDS011;37911;51.526;11.536;2023-10-13T17:08:09;15.00;;;5.75;;
51877;SDS011;37911;51.526;11.536;2023-10-13T17:11:14;16.77;;;5.60;;
51877;SDS011;37911;51.526;11.536;2023-10-13T17:14:21;15.07;;;6.07;;
51877;SDS011;37911;51.526;11.536;2023-10-13T17:17:25;18.50;;;5.72;;
51877;SDS011;37911;51.526;11.536;2023-10-13T17:20:29;18.33;;;6.07;;
51877;SDS011;37911;51.526;11.536;2023-10-13T17:23:36;12.90;;;5.72;;
51877;SDS011;37911;51.526;11.536;2023-10-13T17:26:40;13.95;;;5.55;;
51877;SDS011;37911;51.526;11.536;2023-10-13T17:29:46;18.35;;;5.70;;
51877;SDS011;37911;51.526;11.536;2023-10-13T17:32:49;13.45;;;5.60;;
51877;SDS011;37911;51.526;11.536;2023-10-13T17:35:54;14.13;;;5.90;;
51877;SDS011;37911;51.526;11.536;2023-10-13T17:38:58;14.90;;;6.07;;
51877;SDS011;37911;51.526;11.536;2023-10-13T17:42:01;16.52;;;6.50;;
51877;SDS011;37911;51.526;11.536;2023-10-13T17:45:08;17.13;;;7.05;;
51877;SDS011;37911;51.526;11.536;2023-10-13T17:48:14;19.77;;;6.90;;
51877;SDS011;37911;51.526;11.536;2023-10-13T17:51:17;15.52;;;5.68;;
51877;SDS011;37911;51.526;11.536;2023-10-13T17:54:23;17.02;;;6.03;;
51877;SDS011;37911;51.526;11.536;2023-10-13T17:57:27;12.93;;;5.88;;
51877;SDS011;37911;51.526;11.536;2023-10-13T18:00:33;13.85;;;5.63;;
51877;SDS011;37911;51.526;11.536;2023-10-13T18:03:37;14.13;;;6.00;;
51877;SDS011;37911;51.526;11.536;2023-10-13T18:06:41;15.05;;;5.50;;
51877;SDS011;37911;51.526;11.536;2023-10-13T18:09:44;12.73;;;5.40;;
51877;SDS011;37911;51.526;11.536;2023-10-13T18:12:48;12.95;;;5.20;;
51877;SDS011;37911;51.526;11.536;2023-10-13T18:15:54;11.00;;;4.40;;
51877;SDS011;37911;51.526;11.536;2023-10-13T18:18:58;14.70;;;5.15;;
51877;SDS011;37911;51.526;11.536;2023-10-13T18:22:07;12.77;;;5.07;;
51877;SDS011;37911;51.526;11.536;2023-10-13T18:25:15;13.05;;;5.07;;
51877;SDS011;37911;51.526;11.536;2023-10-13T18:28:24;14.07;;;5.38;;
51877;SDS011;37911;51.526;11.536;2023-10-13T18:31:32;15.77;;;5.60;;